^^
Saratoga-Weather Station Historical Data
Daily Summary for September 11, 2021 Units:  English    Metric   Both
Daily Weekly Monthly Yearly Custom
  High: Low: Average:
Temperature: 75.9 °F 56.1 °F 64.4 °F
Dew Point: 62.1 °F 54.5 °F 58.1 °F
Humidity: 95% 57% 82%
Wind Speed: 6.9mph 0mph 1.1mph
Wind Gust: 10mph - -
Wind- - WSW
Pressure: 30 in 29.9 in -
Precipitation: 0 in    
Historical Graphs
 
 
Tabular Data for September 11, 2021
Time Temperature Dew Point Pressure Wind Wind Speed Wind Gust Humidity Rainfall Rate (Hourly) solar
00:02 60.3 °F 58.5 °F 30 in Calm     94% 0 in 0 W/m2
00:07 60.3 °F 58.5 °F 30 in West 2 mph 4 mph 94% 0 in 0 W/m2
00:12 60.3 °F 58.8 °F 30 in West 2 mph 4 mph 95% 0 in 0 W/m2
00:17 60.3 °F 58.8 °F 30 in WSW 2 mph 6 mph 95% 0 in 0 W/m2
00:22 60.3 °F 58.8 °F 30 in West 2 mph 6 mph 95% 0 in 0 W/m2
00:27 60.4 °F 59 °F 30 in West 2 mph 3 mph 95% 0 in 0 W/m2
00:32 60.4 °F 58.6 °F 30 in WNW 2 mph 2 mph 94% 0 in 0 W/m2
00:37 60.4 °F 58.6 °F 30 in WNW 0.9 mph 4 mph 94% 0 in 0 W/m2
00:42 60.4 °F 58.6 °F 30 in WNW 2 mph 3 mph 94% 0 in 0 W/m2
00:47 60.4 °F 58.6 °F 30 in West 2 mph 3 mph 94% 0 in 0 W/m2
00:52 60.3 °F 58.5 °F 30 in West 2.9 mph 4 mph 94% 0 in 0 W/m2
00:57 60.3 °F 58.5 °F 30 in West 2.9 mph 6 mph 94% 0 in 0 W/m2
01:02 60.3 °F 58.5 °F 30 in WSW 2.9 mph 7 mph 94% 0 in 0 W/m2
01:07 60.3 °F 58.5 °F 30 in WNW 2 mph 4 mph 94% 0 in 0 W/m2
01:12 60.1 °F 58.3 °F 30 in WNW 4 mph 9 mph 94% 0 in 0 W/m2
01:17 60.1 °F 58.3 °F 30 in West 2 mph 4 mph 94% 0 in 0 W/m2
01:22 59.9 °F 58.1 °F 30 in West 2.9 mph 6 mph 94% 0 in 0 W/m2
01:27 59.7 °F 57.9 °F 30 in West 6.9 mph 8 mph 94% 0 in 0 W/m2
01:32 59.5 °F 57.7 °F 30 in West 0.9 mph 7 mph 94% 0 in 0 W/m2
01:37 59.5 °F 57.7 °F 30 in West 2.9 mph 8 mph 94% 0 in 0 W/m2
01:42 59.4 °F 57.6 °F 30 in West 4 mph 4 mph 94% 0 in 0 W/m2
01:47 59.2 °F 57.4 °F 30 in WNW 4 mph 8 mph 94% 0 in 0 W/m2
01:52 58.8 °F 57 °F 30 in West 2 mph 7 mph 94% 0 in 0 W/m2
01:57 58.6 °F 56.8 °F 30 in WSW 2.9 mph 4 mph 94% 0 in 0 W/m2
02:02 58.5 °F 56.7 °F 30 in West 2 mph 4 mph 94% 0 in 0 W/m2
02:07 58.3 °F 56.5 °F 30 in WNW 4 mph 6 mph 94% 0 in 0 W/m2
02:12 58.1 °F 56.3 °F 30 in West 2 mph 4 mph 94% 0 in 0 W/m2
02:17 57.9 °F 56.1 °F 30 in West 0.9 mph 4 mph 94% 0 in 0 W/m2
02:22 57.7 °F 55.8 °F 30 in WSW 2.9 mph 7 mph 93% 0 in 0 W/m2
02:27 57.6 °F 55.8 °F 30 in WNW 2.9 mph 7 mph 94% 0 in 0 W/m2
02:32 57.4 °F 55.6 °F 30 in West 0.9 mph 5 mph 94% 0 in 0 W/m2
02:37 57 °F 55 °F 30 in West 2.9 mph 7 mph 93% 0 in 0 W/m2
02:42 57 °F 55.2 °F 30 in WSW 4 mph 8 mph 94% 0 in 0 W/m2
02:47 56.8 °F 55.2 °F 30 in WSW 4 mph 6 mph 94% 0 in 0 W/m2
02:52 56.8 °F 55.2 °F 30 in WNW 4 mph 10 mph 94% 0 in 0 W/m2
02:57 56.8 °F 55.2 °F 30 in WNW 2.9 mph 6 mph 94% 0 in 0 W/m2
03:02 56.7 °F 55 °F 30 in WNW 2.9 mph 10 mph 94% 0 in 0 W/m2
03:07 56.7 °F 54.7 °F 30 in West 2 mph 4 mph 93% 0 in 0 W/m2
03:12 56.5 °F 54.5 °F 30 in West 2 mph 4 mph 93% 0 in 0 W/m2
03:17 56.5 °F 54.5 °F 30 in West 0.9 mph 4 mph 93% 0 in 0 W/m2
03:22 56.3 °F 54.7 °F 30 in West 2.9 mph 7 mph 94% 0 in 0 W/m2
03:27 56.1 °F 54.5 °F 30 in West 2 mph 3 mph 94% 0 in 0 W/m2
03:32 56.1 °F 54.5 °F 30 in WNW 2 mph 7 mph 94% 0 in 0 W/m2
03:37 56.1 °F 54.5 °F 30 in West 4 mph 8 mph 94% 0 in 0 W/m2
03:42 56.1 °F 54.5 °F 30 in WNW 0.9 mph 4 mph 94% 0 in 0 W/m2
03:47 56.1 °F 54.5 °F 30 in West 2 mph 4 mph 94% 0 in 0 W/m2
03:52 56.1 °F 54.5 °F 30 in WNW 2.9 mph 6 mph 94% 0 in 0 W/m2
03:57 56.1 °F 54.5 °F 30 in WNW 2.9 mph 6 mph 94% 0 in 0 W/m2
04:02 56.3 °F 54.7 °F 30 in West 2 mph 3 mph 94% 0 in 0 W/m2
04:07 56.5 °F 54.9 °F 30 in WNW 0.9 mph 5 mph 94% 0 in 0 W/m2
04:12 56.5 °F 54.9 °F 30 in WNW 2 mph 4 mph 94% 0 in 0 W/m2
04:17 56.7 °F 55 °F 30 in WNW 2.9 mph 6 mph 94% 0 in 0 W/m2
04:22 56.7 °F 55 °F 30 in West 2.9 mph 8 mph 94% 0 in 0 W/m2
04:27 56.8 °F 55.2 °F 30 in WNW 2.9 mph 5 mph 94% 0 in 0 W/m2
04:32 56.8 °F 55.2 °F 30 in WNW 2.9 mph 8 mph 94% 0 in 0 W/m2
04:37 56.8 °F 55.2 °F 30 in West 2.9 mph 5 mph 94% 0 in 0 W/m2
04:42 57 °F 55 °F 30 in West 2.9 mph 7 mph 93% 0 in 0 W/m2
04:47 57 °F 55 °F 30 in NW 0.9 mph 1 mph 93% 0 in 0 W/m2
04:52 57 °F 55 °F 30 in Calm   7 mph 93% 0 in 0 W/m2
04:57 56.8 °F 54.9 °F 30 in West 0.9 mph 3 mph 93% 0 in 0 W/m2
05:02 56.8 °F 54.9 °F 30 in West 2 mph 7 mph 93% 0 in 0 W/m2
05:07 57 °F 55.2 °F 30 in West 6.9 mph 7 mph 94% 0 in 0 W/m2
05:12 57 °F 55.2 °F 30 in SW 0.9 mph 4 mph 94% 0 in 0 W/m2
05:17 57 °F 55.2 °F 30 in WNW 0.9 mph 2 mph 94% 0 in 0 W/m2
05:22 57.2 °F 55.4 °F 30 in NW 2 mph 3 mph 94% 0 in 0 W/m2
05:27 57.4 °F 55.6 °F 30 in Calm   2 mph 94% 0 in 0 W/m2
05:32 57.4 °F 55.6 °F 30 in WNW 0.9 mph 2 mph 94% 0 in 0 W/m2
05:37 57.4 °F 55.6 °F 30 in Calm     94% 0 in 0 W/m2
05:42 57.4 °F 55.6 °F 30 in Calm     94% 0 in 0 W/m2
05:47 57.4 °F 55.6 °F 30 in Calm     94% 0 in 0 W/m2
05:52 57.4 °F 55.6 °F 30 in Calm     94% 0 in 0 W/m2
05:57 57.4 °F 55.6 °F 30 in Calm     94% 0 in 0 W/m2
06:02 57.4 °F 55.6 °F 30 in Calm     94% 0 in 5 W/m2
06:07 57.4 °F 55.6 °F 30 in WNW 0.9 mph 2 mph 94% 0 in 11 W/m2
06:12 57.2 °F 55.4 °F 30 in Calm   2 mph 94% 0 in 16 W/m2
06:17 57.2 °F 55.4 °F 30 in Calm     94% 0 in 16 W/m2
06:22 57.2 °F 55.8 °F 30 in Calm   1 mph 95% 0 in 16 W/m2
06:27 57.4 °F 55.9 °F 30 in Calm     95% 0 in 12 W/m2
06:32 57.4 °F 55.9 °F 30 in Calm     95% 0 in 16 W/m2
06:37 57.4 °F 55.9 °F 30 in Calm   2 mph 95% 0 in 14 W/m2
06:42 57.4 °F 55.9 °F 30 in Calm   1 mph 95% 0 in 39 W/m2
06:47 57.4 °F 55.9 °F 30 in Calm   1 mph 95% 0 in 47 W/m2
06:52 57.6 °F 56.1 °F 30 in WNW 0.9 mph 3 mph 95% 0 in 60 W/m2
06:57 57.6 °F 56.1 °F 30 in West 0.9 mph 3 mph 95% 0 in 63 W/m2
07:02 57.6 °F 56.1 °F 30 in West 2 mph 4 mph 95% 0 in 65 W/m2
07:07 57.7 °F 56.3 °F 30 in NW 2 mph 4 mph 95% 0 in 74 W/m2
07:12 57.7 °F 56.3 °F 30 in WSW 2.9 mph 4 mph 95% 0 in 69 W/m2
07:17 57.7 °F 56.3 °F 30 in NW 2.9 mph 6 mph 95% 0 in 62 W/m2
07:22 57.9 °F 56.1 °F 30 in WNW 0.9 mph 3 mph 94% 0 in 62 W/m2
07:27 57.9 °F 56.1 °F 30 in WNW 0.9 mph 6 mph 94% 0 in 63 W/m2
07:32 58.1 °F 56.3 °F 30 in NNW 2 mph 2 mph 94% 0 in 42 W/m2
07:38 57.9 °F 56.1 °F 30 in NNW 0.9 mph 3 mph 94% 0 in 40 W/m2
07:43 58.1 °F 56.3 °F 30 in NNW 2 mph 4 mph 94% 0 in 49 W/m2
07:48 58.3 °F 56.5 °F 30 in Calm   1 mph 94% 0 in 49 W/m2
07:53 58.3 °F 56.3 °F 30 in NW 0.9 mph 4 mph 93% 0 in 63 W/m2
07:58 58.3 °F 56.3 °F 30 in WNW 0.9 mph 4 mph 93% 0 in 72 W/m2
08:03 58.5 °F 56.5 °F 30 in Calm   2 mph 93% 0 in 90 W/m2
08:08 58.5 °F 56.5 °F 30 in Calm   3 mph 93% 0 in 79 W/m2
08:13 58.6 °F 56.7 °F 30 in Calm     93% 0 in 65 W/m2
08:18 58.6 °F 56.3 °F 30 in WNW 0.9 mph 3 mph 92% 0 in 76 W/m2
08:23 58.8 °F 56.5 °F 30 in Calm   2 mph 92% 0 in 79 W/m2
08:28 58.8 °F 56.5 °F 30 in WNW 0.9 mph 3 mph 92% 0 in 54 W/m2
08:33 59 °F 56.7 °F 30 in Calm   1 mph 92% 0 in 58 W/m2
08:38 59 °F 56.7 °F 30 in Calm   2 mph 92% 0 in 72 W/m2
08:43 59.2 °F 56.8 °F 30 in Calm     92% 0 in 109 W/m2
08:48 59.2 °F 56.8 °F 30 in Calm   1 mph 92% 0 in 132 W/m2
08:53 59.4 °F 57 °F 30 in North 0.9 mph 2 mph 92% 0 in 100 W/m2
08:58 59.5 °F 57.2 °F 30 in Calm   1 mph 92% 0 in 114 W/m2
09:03 59.7 °F 57 °F 30 in Calm     91% 0 in 128 W/m2
09:08 59.9 °F 57.2 °F 30 in West 0.9 mph 2 mph 91% 0 in 123 W/m2
09:13 60.1 °F 57.2 °F 30 in Calm   2 mph 90% 0 in 111 W/m2
09:18 60.1 °F 57.2 °F 30 in Calm   1 mph 90% 0 in 104 W/m2
09:23 60.1 °F 56.8 °F 30 in Calm     89% 0 in 97 W/m2
09:28 60.1 °F 56.8 °F 30 in Calm   1 mph 89% 0 in 83 W/m2
09:33 60.3 °F 57.4 °F 30 in Calm   1 mph 90% 0 in 98 W/m2
09:38 60.3 °F 57 °F 30 in Calm     89% 0 in 100 W/m2
09:43 60.4 °F 57.6 °F 30 in West 0.9 mph 2 mph 90% 0 in 118 W/m2
09:48 60.4 °F 57.2 °F 30 in Calm     89% 0 in 144 W/m2
09:53 60.4 °F 57.2 °F 30 in NE 0.9 mph 2 mph 89% 0 in 204 W/m2
09:58 60.6 °F 57.4 °F 30 in Calm   1 mph 89% 0 in 230 W/m2
10:03 60.8 °F 57.6 °F 30 in Calm   2 mph 89% 0 in 162 W/m2
10:08 61.2 °F 57.9 °F 30 in Calm   1 mph 89% 0 in 165 W/m2
10:13 61.2 °F 57.9 °F 30 in East 2 mph 2 mph 89% 0 in 144 W/m2
10:18 61.2 °F 57.9 °F 30 in Calm   1 mph 89% 0 in 141 W/m2
10:23 61.2 °F 58.3 °F 30 in Calm   2 mph 90% 0 in 174 W/m2
10:28 61.3 °F 58.6 °F 30 in Calm   1 mph 91% 0 in 199 W/m2
10:33 61.3 °F 58.6 °F 30 in Calm   2 mph 91% 0 in 142 W/m2
10:38 61.2 °F 58.3 °F 30 in NE 0.9 mph 2 mph 90% 0 in 142 W/m2
10:43 61.2 °F 58.5 °F 30 in NE 0.9 mph 2 mph 91% 0 in 149 W/m2
10:48 61.3 °F 58.6 °F 30 in Calm   1 mph 91% 0 in 169 W/m2
10:53 61.2 °F 58.3 °F 30 in Calm   2 mph 90% 0 in 146 W/m2
10:58 61 °F 57.7 °F 30 in ENE 2 mph 2 mph 89% 0 in 223 W/m2
11:03 61.2 °F 57.9 °F 30 in Calm   1 mph 89% 0 in 271 W/m2
11:08 61.5 °F 58.3 °F 30 in Calm   1 mph 89% 0 in 278 W/m2
11:13 62.1 °F 58.8 °F 30 in Calm   2 mph 89% 0 in 800 W/m2
11:18 62.8 °F 59.2 °F 30 in Calm   1 mph 88% 0 in 853 W/m2
11:23 63.3 °F 59 °F 30 in NNW 2 mph 3 mph 86% 0 in 837 W/m2
11:28 64 °F 59.4 °F 30 in Calm   3 mph 85% 0 in 308 W/m2
11:33 64.6 °F 59.4 °F 30 in Calm   1 mph 83% 0 in 258 W/m2
11:39 64.9 °F 59.4 °F 30 in West 0.9 mph 2 mph 82% 0 in 271 W/m2
11:44 64.9 °F 59.4 °F 30 in Calm     82% 0 in 246 W/m2
11:49 64.9 °F 59.4 °F 30 in Calm   1 mph 82% 0 in 308 W/m2
11:54 65.1 °F 60.1 °F 30 in Calm   2 mph 84% 0 in 339 W/m2
11:59 65.1 °F 59.9 °F 30 in West 0.9 mph 2 mph 83% 0 in 341 W/m2
12:04 65.1 °F 59.5 °F 30 in West 2 mph 2 mph 82% 0 in 461 W/m2
12:09 65.5 °F 59.9 °F 30 in West 0.9 mph 4 mph 82% 0 in 454 W/m2
12:14 65.5 °F 59.9 °F 30 in WNW 2 mph 2 mph 82% 0 in 536 W/m2
12:19 65.5 °F 58.5 °F 30 in ESE 2 mph 7 mph 78% 0 in 526 W/m2
12:24 65.8 °F 59.2 °F 30 in West 2.9 mph 7 mph 79% 0 in 517 W/m2
12:29 65.8 °F 59.5 °F 30 in NW 0.9 mph 4 mph 80% 0 in 461 W/m2
12:34 66 °F 59.4 °F 30 in West 0.9 mph 7 mph 79% 0 in 441 W/m2
12:39 66.4 °F 59.7 °F 30 in West 2 mph 3 mph 79% 0 in 397 W/m2
12:44 66.4 °F 59.7 °F 30 in WSW 2 mph 3 mph 79% 0 in 417 W/m2
12:49 66.7 °F 59.4 °F 30 in West 0.9 mph 2 mph 77% 0 in 536 W/m2
12:54 67.1 °F 60.1 °F 30 in West 0.9 mph 3 mph 78% 0 in 439 W/m2
12:59 67.8 °F 59.9 °F 30 in ENE 0.9 mph 4 mph 76% 0 in 1222 W/m2
13:04 68.4 °F 60.4 °F 30 in East 4 mph 4 mph 76% 0 in 1137 W/m2
13:09 68.4 °F 59.7 °F 30 in ENE 2 mph 3 mph 74% 0 in 332 W/m2
13:14 68.5 °F 60.3 °F 30 in West 2.9 mph 7 mph 75% 0 in 292 W/m2
13:19 68.2 °F 59.9 °F 30 in WNW 4.9 mph 5 mph 75% 0 in 381 W/m2
13:24 68.2 °F 59.9 °F 30 in WNW 0.9 mph 3 mph 75% 0 in 431 W/m2
13:29 68.4 °F 60.4 °F 30 in WNW 2 mph 5 mph 76% 0 in 803 W/m2
13:34 68.7 °F 58.1 °F 30 in NW 0.9 mph 4 mph 69% 0 in 803 W/m2
13:39 69.3 °F 59.5 °F 30 in WNW 0.9 mph 4 mph 71% 0 in 1071 W/m2
13:44 69.6 °F 59.4 °F 30 in WSW 0.9 mph 1 mph 70% 0 in 963 W/m2
13:49 70.2 °F 58.3 °F 30 in WSW 2.9 mph 4 mph 66% 0 in 951 W/m2
13:54 70.2 °F 58.3 °F 30 in North 2.9 mph 6 mph 66% 0 in 970 W/m2
13:59 70.2 °F 59.5 °F 30 in NW 2 mph 4 mph 69% 0 in 984 W/m2
14:04 70.3 °F 60.4 °F 30 in WSW 2 mph 6 mph 71% 0 in 977 W/m2
14:09 70.3 °F 58.1 °F 30 in WNW 4 mph 6 mph 65% 0 in 1034 W/m2
14:14 70.5 °F 58.1 °F 30 in West 2.9 mph 5 mph 65% 0 in 984 W/m2
14:19 71.1 °F 57.7 °F 30 in Calm   4 mph 63% 0 in 979 W/m2
14:24 71.1 °F 58.6 °F 30 in NNW 2 mph 4 mph 65% 0 in 983 W/m2
14:29 70.9 °F 60.3 °F 30 in WSW 2 mph 3 mph 69% 0 in 997 W/m2
14:34 71.2 °F 59.4 °F 30 in SSW 2 mph 4 mph 66% 0 in 1025 W/m2
14:39 71.6 °F 58.8 °F 30 in NW 2 mph 5 mph 64% 0 in 1041 W/m2
14:44 72.1 °F 59.7 °F 30 in West 2 mph 4 mph 65% 0 in 1060 W/m2
14:49 72.7 °F 59.4 °F 30 in SW 4.9 mph 5 mph 63% 0 in 1013 W/m2
14:54 72.7 °F 58.8 °F 30 in Calm   3 mph 62% 0 in 1005 W/m2
14:59 72.5 °F 57.4 °F 30 in Calm   4 mph 59% 0 in 1039 W/m2
15:04 72.5 °F 58.8 °F 30 in WNW 2 mph 7 mph 62% 0 in 988 W/m2
15:09 72.9 °F 59.9 °F 30 in WNW 4.9 mph 5 mph 64% 0 in 1005 W/m2
15:14 73.2 °F 59.4 °F 30 in West 2.9 mph 5 mph 62% 0 in 1005 W/m2
15:19 73.2 °F 59 °F 30 in WNW 2 mph 5 mph 61% 0 in 1028 W/m2
15:24 73 °F 61 °F 30 in Calm   2 mph 66% 0 in 216 W/m2
15:29 72.7 °F 58.8 °F 30 in Calm   3 mph 62% 0 in 195 W/m2
15:34 72.3 °F 58.6 °F 30 in Calm   1 mph 62% 0 in 246 W/m2
15:39 72.1 °F 58.5 °F 30 in West 2 mph 2 mph 62% 0 in 241 W/m2
15:44 71.8 °F 58.1 °F 30 in Calm   1 mph 62% 0 in 262 W/m2
15:49 71.8 °F 59.4 °F 30 in NW 4 mph 7 mph 65% 0 in 352 W/m2
15:54 72.1 °F 58.5 °F 30 in NW 0.9 mph 4 mph 62% 0 in 1028 W/m2
15:59 72.9 °F 59 °F 30 in WSW 2.9 mph 6 mph 62% 0 in 1011 W/m2
16:04 73 °F 59.7 °F 30 in WSW 2.9 mph 4 mph 63% 0 in 250 W/m2
16:09 72.9 °F 59 °F 30 in Calm   3 mph 62% 0 in 257 W/m2
16:14 72.7 °F 59.4 °F 30 in WNW 0.9 mph 3 mph 63% 0 in 260 W/m2
16:19 72.3 °F 59.5 °F 30 in WSW 0.9 mph 3 mph 64% 0 in 248 W/m2
16:24 72.1 °F 59.7 °F 30 in WSW 0.9 mph 3 mph 65% 0 in 246 W/m2
16:29 72 °F 59.5 °F 30 in Calm   1 mph 65% 0 in 244 W/m2
16:34 72 °F 59.5 °F 30 in West 2 mph 3 mph 65% 0 in 237 W/m2
16:39 71.8 °F 59.7 °F 30 in WSW 0.9 mph 2 mph 66% 0 in 236 W/m2
16:44 71.8 °F 60.6 °F 30 in SW 0.9 mph 3 mph 68% 0 in 234 W/m2
16:49 71.6 °F 60.1 °F 30 in ENE 2 mph 3 mph 67% 0 in 241 W/m2
16:54 71.4 °F 59 °F 30 in NE 0.9 mph 1 mph 65% 0 in 253 W/m2
16:59 71.6 °F 59.7 °F 30 in Calm   2 mph 66% 0 in 316 W/m2
17:04 71.8 °F 59.7 °F 30 in East 2 mph 2 mph 66% 0 in 357 W/m2
17:09 72 °F 59.5 °F 30 in East 0.9 mph 4 mph 65% 0 in 425 W/m2
17:14 72.3 °F 59.5 °F 30 in East 2 mph 4 mph 64% 0 in 610 W/m2
17:19 72.7 °F 59.7 °F 30 in NNW 2 mph 2 mph 64% 0 in 466 W/m2
17:24 73.4 °F 59.5 °F 30 in WSW 2 mph 4 mph 62% 0 in 998 W/m2
17:29 73.6 °F 59.7 °F 30 in SSE 0.9 mph 2 mph 62% 0 in 487 W/m2
17:34 73.9 °F 59.2 °F 30 in Calm   1 mph 60% 0 in 698 W/m2
17:39 74.7 °F 59.4 °F 30 in ESE 2 mph 4 mph 59% 0 in 824 W/m2
17:44 75 °F 58.8 °F 30 in Calm   1 mph 57% 0 in 631 W/m2
17:49 75 °F 59.2 °F 30 in Calm   2 mph 58% 0 in 218 W/m2
17:54 74.8 °F 59 °F 30 in Calm   1 mph 58% 0 in 167 W/m2
17:59 74.5 °F 59.7 °F 30 in Calm   3 mph 60% 0 in 137 W/m2
18:04 74.1 °F 60.8 °F 30 in Calm     63% 0 in 193 W/m2
18:09 74.1 °F 58.8 °F 30 in NE 0.9 mph 3 mph 59% 0 in 476 W/m2
18:14 74.7 °F 59.9 °F 30 in WNW 0.9 mph 2 mph 60% 0 in 420 W/m2
18:19 75 °F 59.7 °F 30 in Calm   1 mph 59% 0 in 383 W/m2
18:24 75.4 °F 59.5 °F 30 in ENE 0.9 mph 2 mph 58% 0 in 267 W/m2
18:29 75.4 °F 60.1 °F 30 in ENE 0.9 mph 1 mph 59% 0 in 461 W/m2
18:34 75.6 °F 59.7 °F 30 in ESE 2 mph 2 mph 58% 0 in 446 W/m2
18:39 75.7 °F 60.8 °F 30 in South 0.9 mph 4 mph 60% 0 in 408 W/m2
18:44 75.9 °F 60.1 °F 30 in ENE 2 mph 2 mph 58% 0 in 362 W/m2
18:49 75.6 °F 59.2 °F 29.9 in Calm   2 mph 57% 0 in 301 W/m2
18:54 75 °F 60.6 °F 30 in Calm   1 mph 61% 0 in 332 W/m2
18:59 75.4 °F 61 °F 30 in Calm   1 mph 61% 0 in 146 W/m2
19:04 75.4 °F 59.5 °F 30 in WNW 0.9 mph 2 mph 58% 0 in 197 W/m2
19:09 75 °F 59.2 °F 29.9 in West 0.9 mph 2 mph 58% 0 in 229 W/m2
19:15 74.8 °F 59.5 °F 29.9 in Calm   1 mph 59% 0 in 237 W/m2
19:20 75 °F 60.3 °F 29.9 in Calm   2 mph 60% 0 in 155 W/m2
19:25 75 °F 61.5 °F 29.9 in Calm   1 mph 63% 0 in 128 W/m2
19:30 74.8 °F 61.3 °F 29.9 in Calm     63% 0 in 93 W/m2
19:35 74.1 °F 62.1 °F 29.9 in Calm     66% 0 in 83 W/m2
19:40 73.8 °F 62.1 °F 29.9 in Calm     67% 0 in 81 W/m2
19:45 73.2 °F 62.1 °F 29.9 in Calm     68% 0 in 81 W/m2
19:50 72.7 °F 61.9 °F 29.9 in Calm     69% 0 in 83 W/m2
19:55 72.1 °F 61.9 °F 29.9 in Calm     70% 0 in 86 W/m2
20:00 71.8 °F 61.9 °F 29.9 in Calm     71% 0 in 77 W/m2
20:05 71.2 °F 61.7 °F 29.9 in Calm     72% 0 in 72 W/m2
20:10 70.9 °F 61.9 °F 29.9 in Calm     73% 0 in 69 W/m2
20:15 70.5 °F 61.5 °F 29.9 in Calm     73% 0 in 67 W/m2
20:20 70.2 °F 61.2 °F 29.9 in Calm     73% 0 in 62 W/m2
20:25 69.8 °F 60.8 °F 29.9 in Calm     73% 0 in 56 W/m2
20:30 69.6 °F 61 °F 29.9 in SW 0.9 mph 1 mph 74% 0 in 54 W/m2
20:35 69.3 °F 60.6 °F 29.9 in Calm   2 mph 74% 0 in 74 W/m2
20:40 69.3 °F 61 °F 29.9 in Calm     75% 0 in 76 W/m2
20:45 69.3 °F 60.6 °F 29.9 in Calm     74% 0 in 67 W/m2
20:50 69.4 °F 60.8 °F 29.9 in Calm     74% 0 in 51 W/m2
20:55 69.6 °F 61 °F 29.9 in Calm     74% 0 in 39 W/m2
21:00 69.6 °F 60.6 °F 29.9 in Calm     73% 0 in 35 W/m2
21:05 69.4 °F 60.1 °F 29.9 in Calm     72% 0 in 32 W/m2
21:15 69.1 °F 60.1 °F 29.9 in Calm     73% 0 in 21 W/m2
21:20 68.7 °F 59.4 °F 29.9 in Calm     72% 0 in 19 W/m2
21:25 68.2 °F 59.2 °F 29.9 in Calm     73% 0 in 14 W/m2
21:30 67.6 °F 59 °F 29.9 in Calm     74% 0 in 9 W/m2
21:35 67.3 °F 59 °F 29.9 in Calm     75% 0 in 5 W/m2
21:40 66.7 °F 58.6 °F 29.9 in Calm     75% 0 in 0 W/m2
21:45 66.4 °F 58.6 °F 29.9 in Calm     76% 0 in 0 W/m2
21:50 66 °F 58.3 °F 29.9 in Calm     76% 0 in 0 W/m2
21:55 65.8 °F 58.5 °F 29.9 in Calm     77% 0 in 0 W/m2
22:00 65.5 °F 58.5 °F 29.9 in Calm     78% 0 in 0 W/m2
22:05 64.9 °F 58.3 °F 29.9 in Calm     79% 0 in 0 W/m2
22:10 64.8 °F 58.5 °F 29.9 in Calm     80% 0 in 0 W/m2
22:15 64.4 °F 58.8 °F 29.9 in Calm     82% 0 in 0 W/m2
22:20 64 °F 58.8 °F 29.9 in Calm     83% 0 in 0 W/m2
22:25 63.9 °F 58.6 °F 29.9 in Calm     83% 0 in 0 W/m2
22:31 63.7 °F 58.8 °F 29.9 in Calm     84% 0 in 0 W/m2
22:36 63.3 °F 58.5 °F 29.9 in Calm     84% 0 in 0 W/m2
22:41 63.3 °F 58.8 °F 29.9 in Calm     85% 0 in 0 W/m2
22:46 63 °F 58.5 °F 29.9 in Calm     85% 0 in 0 W/m2
22:51 62.8 °F 58.3 °F 29.9 in Calm     85% 0 in 0 W/m2
22:56 62.6 °F 58.3 °F 29.9 in Calm     86% 0 in 0 W/m2
23:01 62.4 °F 58.1 °F 29.9 in Calm     86% 0 in 0 W/m2
23:06 62.2 °F 57.9 °F 29.9 in Calm     86% 0 in 0 W/m2
23:11 62.2 °F 58.3 °F 29.9 in Calm     87% 0 in 0 W/m2
23:16 62.1 °F 58.5 °F 29.9 in Calm     88% 0 in 0 W/m2
23:21 62.1 °F 58.1 °F 29.9 in Calm     87% 0 in 0 W/m2
23:26 61.9 °F 58.3 °F 29.9 in Calm     88% 0 in 0 W/m2
23:31 61.7 °F 58.1 °F 29.9 in Calm     88% 0 in 0 W/m2
23:36 61.5 °F 58.3 °F 29.9 in Calm     89% 0 in 0 W/m2
23:41 61.3 °F 58.1 °F 29.9 in Calm     89% 0 in 0 W/m2
23:46 61.2 °F 57.9 °F 29.9 in Calm     89% 0 in 0 W/m2
23:51 61.2 °F 57.9 °F 29.9 in Calm     89% 0 in 0 W/m2
23:56 61 °F 57.7 °F 29.9 in Calm     89% 0 in 0 W/m2
Juneau County Weather
Compliments of Weather Underground - 4 mb